Time;durP1;ratioP1;P1;durP2;ratioP2;P2;SDS_P1;SDS_P2;PMS_P1;PMS_P2;Temp;Humidity;BMP_temperature;BMP_pressure;BME280_temperature;BME280_humidity;BME280_pressure;Samples;Min_cycle;Max_cycle;Signal;HPM_P1;HPM_P2
2024/01/12 00:33:41;;;;;;;;;;;;;;;-147.86;100.00;-17609.17;102888;1288;600649;-45
2024/01/12 00:36:09;;;;;;;0.40;0.30;;;;;;;-147.86;100.00;-17609.17;105108;1263;60835;-44
2024/01/12 00:38:37;;;;;;;0.80;0.30;;;;;;;-147.86;100.00;-17609.17;104876;1263;59330;-44
2024/01/12 00:41:04;;;;;;;1.10;0.50;;;;;;;-147.86;100.00;-17609.17;104852;1264;70764;-45
2024/01/12 00:43:33;;;;;;;1.20;0.60;;;;;;;-147.86;100.00;-17609.17;104898;1264;63628;-46
2024/01/12 00:46:02;;;;;;;0.20;0.20;;;;;;;-147.86;100.00;-17609.17;104927;1263;72622;-45
2024/01/12 00:48:29;;;;;;;0.50;0.40;;;;;;;-147.86;100.00;-17609.17;105043;1263;218919;-45
2024/01/12 00:50:57;;;;;;;1.20;0.40;;;;;;;-147.86;100.00;-17609.17;105236;1267;59326;-44
2024/01/12 00:53:25;;;;;;;3.90;0.60;;;;;;;-147.86;100.00;-17609.17;105156;1261;72225;-45
2024/01/12 00:55:53;;;;;;;0.50;0.40;;;;;;;-147.86;100.00;-17609.17;105162;1263;65390;-45
2024/01/12 00:58:21;;;;;;;6.10;0.50;;;;;;;-147.86;100.00;-17609.17;105162;1267;71480;-45
2024/01/12 01:00:48;;;;;;;2.70;0.50;;;;;;;-147.86;100.00;-17609.17;105154;1263;59646;-45
2024/01/12 01:03:16;;;;;;;1.90;0.70;;;;;;;-147.86;100.00;-17609.17;105172;1266;59752;-44
2024/01/12 01:05:44;;;;;;;1.50;0.70;;;;;;;-147.86;100.00;-17609.17;105115;1267;72216;-45
2024/01/12 01:08:12;;;;;;;2.60;0.70;;;;;;;-147.86;100.00;-17609.17;105139;1265;65160;-44
2024/01/12 01:10:41;;;;;;;6.60;0.80;;;;;;;-147.86;100.00;-17609.17;105129;1264;71387;-45
2024/01/12 01:13:09;;;;;;;1.30;0.80;;;;;;;-147.86;100.00;-17609.17;105180;1264;59636;-45
2024/01/12 01:15:38;;;;;;;1.20;0.80;;;;;;;-147.86;100.00;-17609.17;105186;1262;59644;-44
2024/01/12 01:18:06;;;;;;;1.40;1.30;;;;;;;-147.86;100.00;-17609.17;105136;1263;71763;-45
2024/01/12 01:20:35;;;;;;;1.30;0.70;;;;;;;-147.86;100.00;-17609.17;105195;1264;65362;-45
2024/01/12 01:23:03;;;;;;;1.00;0.60;;;;;;;-147.86;100.00;-17609.17;105123;1268;72866;-44
2024/01/12 01:25:31;;;;;;;1.30;0.90;;;;;;;-147.86;100.00;-17609.17;105176;1263;60181;-45
2024/01/12 01:28:01;;;;;;;2.80;0.40;;;;;;;-147.86;100.00;-17609.17;105167;1266;59577;-44
2024/01/12 01:30:30;;;;;;;1.80;1.00;;;;;;;-147.86;100.00;-17609.17;105184;1263;72759;-44
2024/01/12 01:32:57;;;;;;;1.80;0.60;;;;;;;-147.86;100.00;-17609.17;105164;1265;63038;-45
2024/01/12 01:35:26;;;;;;;2.20;0.60;;;;;;;-147.86;100.00;-17609.17;105121;1266;71402;-45
2024/01/12 01:37:53;;;;;;;4.20;0.80;;;;;;;-147.86;100.00;-17609.17;105140;1268;59865;-46
2024/01/12 01:40:22;;;;;;;1.10;0.90;;;;;;;-147.86;100.00;-17609.17;105601;1255;60032;-44
2024/01/12 01:42:49;;;;;;;0.80;0.60;;;;;;;-147.86;100.00;-17609.17;105584;1254;70839;-44
2024/01/12 01:45:17;;;;;;;2.20;1.30;;;;;;;-147.86;100.00;-17609.17;105579;1261;63040;-45
2024/01/12 01:47:45;;;;;;;3.20;0.80;;;;;;;-147.86;100.00;-17609.17;105553;1256;71138;-45
2024/01/12 01:50:14;;;;;;;1.50;1.10;;;;;;;-147.86;100.00;-17609.17;105349;1257;59762;-44
2024/01/12 01:52:43;;;;;;;1.10;0.90;;;;;;;-147.86;100.00;-17609.17;105598;1257;60354;-44
2024/01/12 01:55:12;;;;;;;1.10;0.90;;;;;;;-147.86;100.00;-17609.17;105593;1255;73111;-44
2024/01/12 01:57:40;;;;;;;1.80;1.00;;;;;;;-147.86;100.00;-17609.17;105575;1261;64222;-45
2024/01/12 02:00:10;;;;;;;6.60;0.70;;;;;;;-147.86;100.00;-17609.17;105560;1257;71042;-44
2024/01/12 02:02:41;;;;;;;1.30;0.90;;;;;;;-147.86;100.00;-17609.17;105561;1257;59630;-44
2024/01/12 02:05:09;;;;;;;1.30;1.10;;;;;;;-147.86;100.00;-17609.17;105420;1259;59702;-45
2024/01/12 02:07:37;;;;;;;0.80;0.80;;;;;;;-147.86;100.00;-17609.17;105491;1255;71790;-44
2024/01/12 02:10:06;;;;;;;1.50;0.70;;;;;;;-147.86;100.00;-17609.17;105547;1255;63930;-44
2024/01/12 02:12:35;;;;;;;1.10;0.70;;;;;;;-147.86;100.00;-17609.17;105588;1260;71373;-44
2024/01/12 02:15:07;;;;;;;1.10;0.90;;;;;;;-147.86;100.00;-17609.17;105608;1258;59816;-43
2024/01/12 02:17:35;;;;;;;3.30;1.30;;;;;;;-147.86;100.00;-17609.17;105589;1261;59652;-43
2024/01/12 02:20:03;;;;;;;2.20;1.00;;;;;;;-147.86;100.00;-17609.17;105582;1257;71785;-43
2024/01/12 02:22:31;;;;;;;1.50;0.80;;;;;;;-147.86;100.00;-17609.17;105592;1260;65450;-43
2024/01/12 02:25:01;;;;;;;3.10;0.90;;;;;;;-147.86;100.00;-17609.17;105573;1256;72684;-44
2024/01/12 02:27:29;;;;;;;3.00;1.10;;;;;;;-147.86;100.00;-17609.17;105689;1253;60437;-44
2024/01/12 02:29:57;;;;;;;1.50;0.90;;;;;;;-147.86;100.00;-17609.17;105732;1259;59698;-43
2024/01/12 02:32:25;;;;;;;3.40;1.40;;;;;;;-147.86;100.00;-17609.17;105846;1250;71647;-45
2024/01/12 02:34:53;;;;;;;1.90;0.90;;;;;;;-147.86;100.00;-17609.17;105907;1251;65274;-44
2024/01/12 02:37:20;;;;;;;2.10;0.80;;;;;;;-147.86;100.00;-17609.17;105925;1254;72736;-44
2024/01/12 02:39:48;;;;;;;1.00;0.90;;;;;;;-147.86;100.00;-17609.17;105911;1254;60438;-45
2024/01/12 02:42:17;;;;;;;4.30;1.10;;;;;;;-147.86;100.00;-17609.17;105903;1250;59991;-44
2024/01/12 03:07:06;;;;;;;4.00;2.70;;;;;;;-147.86;100.00;-17609.17;102981;1288;600502;-46
2024/01/12 03:09:35;;;;;;;1.50;1.30;;;;;;;-147.86;100.00;-17609.17;105084;1264;59392;-44
2024/01/12 03:12:03;;;;;;;1.80;1.00;;;;;;;-147.86;100.00;-17609.17;105096;1264;59975;-44
2024/01/12 04:08:31;;;;;;;3.40;0.80;;;;;;;-147.86;100.00;-17609.17;102582;1292;600643;-44
2024/01/12 04:10:59;;;;;;;2.10;1.00;;;;;;;-147.86;100.00;-17609.17;104830;1267;60043;-43
2024/01/12 04:13:27;;;;;;;0.90;0.80;;;;;;;-147.86;100.00;-17609.17;104781;1272;59749;-44
2024/01/12 04:15:55;;;;;;;6.80;0.80;;;;;;;-147.86;100.00;-17609.17;104790;1271;71273;-43
2024/01/12 04:18:23;;;;;;;0.50;0.40;;;;;;;-147.86;100.00;-17609.17;104795;1267;63444;-43
2024/01/12 04:20:51;;;;;;;1.90;0.90;;;;;;;-147.86;100.00;-17609.17;105223;1261;71372;-44
2024/01/12 05:08:33;;;;;;;1.00;0.60;;;;;;;-147.86;100.00;-17609.17;102642;1292;601172;-43
2024/01/12 05:11:02;;;;;;;1.90;1.30;;;;;;;-147.86;100.00;-17609.17;104854;1266;60001;-43
2024/01/12 05:13:30;;;;;;;0.80;0.80;;;;;;;-147.86;100.00;-17609.17;104795;1266;59361;-43
2024/01/12 05:15:57;;;;;;;2.20;0.80;;;;;;;-147.86;100.00;-17609.17;105202;1259;71933;-43
2024/01/12 05:18:25;;;;;;;2.10;0.80;;;;;;;-147.86;100.00;-17609.17;105249;1260;64040;-44
2024/01/12 05:20:54;;;;;;;4.80;0.90;;;;;;;-147.86;100.00;-17609.17;105207;1262;71407;-45
2024/01/12 05:23:21;;;;;;;2.00;1.00;;;;;;;-147.86;100.00;-17609.17;105313;1259;337312;-43
2024/01/12 05:25:49;;;;;;;4.70;0.90;;;;;;;-147.86;100.00;-17609.17;105484;1262;59322;-44
2024/01/12 05:28:17;;;;;;;2.20;1.40;;;;;;;-147.86;100.00;-17609.17;105452;1257;70789;-43
2024/01/12 05:30:45;;;;;;;1.50;1.10;;;;;;;-147.86;100.00;-17609.17;105484;1257;64173;-44
2024/01/12 05:33:13;;;;;;;2.00;0.60;;;;;;;-147.86;100.00;-17609.17;105523;1260;73149;-44
2024/01/12 05:35:43;;;;;;;1.70;0.60;;;;;;;-147.86;100.00;-17609.17;105440;1262;60479;-43
2024/01/12 05:38:10;;;;;;;1.60;0.60;;;;;;;-147.86;100.00;-17609.17;105467;1259;59597;-43
2024/01/12 05:40:38;;;;;;;0.60;0.60;;;;;;;-147.86;100.00;-17609.17;105499;1259;73107;-46
2024/01/12 05:43:06;;;;;;;1.10;0.70;;;;;;;-147.86;100.00;-17609.17;105451;1262;64049;-43
2024/01/12 05:45:33;;;;;;;0.90;0.60;;;;;;;-147.86;100.00;-17609.17;105564;1260;71398;-44
2024/01/12 06:08:37;;;;;;;0.80;0.70;;;;;;;-147.86;100.00;-17609.17;103381;1282;600447;-44
2024/01/12 06:11:05;;;;;;;3.80;0.70;;;;;;;-147.86;100.00;-17609.17;105091;1269;59363;-44
2024/01/12 06:13:33;;;;;;;1.80;1.00;;;;;;;-147.86;100.00;-17609.17;104853;1270;59322;-43
2024/01/12 06:16:02;;;;;;;0.70;0.70;;;;;;;-147.86;100.00;-17609.17;104865;1265;70982;-43
2024/01/12 06:18:29;;;;;;;2.00;1.20;;;;;;;-147.86;100.00;-17609.17;104887;1265;65254;-43
2024/01/12 06:20:58;;;;;;;1.80;1.00;;;;;;;-147.86;100.00;-17609.17;104911;1266;71801;-44
2024/01/12 06:23:25;;;;;;;1.50;1.00;;;;;;;-147.86;100.00;-17609.17;105029;1268;202651;-44
2024/01/12 06:25:53;;;;;;;2.80;1.20;;;;;;;-147.86;100.00;-17609.17;105232;1267;59379;-44
2024/01/12 06:28:21;;;;;;;1.80;1.10;;;;;;;-147.86;100.00;-17609.17;105180;1264;72235;-42
2024/01/12 06:30:48;;;;;;;4.30;0.80;;;;;;;-147.86;100.00;-17609.17;105174;1268;63997;-44
2024/01/12 06:33:16;;;;;;;3.10;1.00;;;;;;;-147.86;100.00;-17609.17;105175;1263;71404;-43
2024/01/12 06:35:44;;;;;;;3.70;1.00;;;;;;;-147.86;100.00;-17609.17;105157;1267;60391;-43
2024/01/12 06:38:12;;;;;;;2.10;0.50;;;;;;;-147.86;100.00;-17609.17;105204;1266;59640;-45
2024/01/12 06:40:40;;;;;;;3.10;1.10;;;;;;;-147.86;100.00;-17609.17;105217;1268;73019;-44
2024/01/12 06:43:08;;;;;;;3.30;1.30;;;;;;;-147.86;100.00;-17609.17;105201;1268;64002;-43
2024/01/12 06:45:36;;;;;;;2.60;1.30;;;;;;;-147.86;100.00;-17609.17;105145;1263;71548;-44
2024/01/12 06:48:05;;;;;;;2.00;1.30;;;;;;;-147.86;100.00;-17609.17;105219;1263;60489;-44
2024/01/12 06:50:33;;;;;;;3.50;0.70;;;;;;;-147.86;100.00;-17609.17;105197;1265;59625;-43
2024/01/12 06:53:08;;;;;;;1.50;0.80;;;;;;;-147.86;100.00;-17609.17;105233;1263;71796;-44
2024/01/12 06:55:36;;;;;;;0.60;0.20;;;;;;;-147.86;100.00;-17609.17;105238;1263;63942;-43
2024/01/12 06:58:05;;;;;;;2.80;1.00;;;;;;;-147.86;100.00;-17609.17;105205;1263;71811;-43
2024/01/12 07:00:32;;;;;;;1.70;0.60;;;;;;;-147.86;100.00;-17609.17;105175;1264;61642;-43
2024/01/12 07:03:01;;;;;;;2.90;1.30;;;;;;;-147.86;100.00;-17609.17;105210;1268;59643;-43
2024/01/12 07:05:29;;;;;;;3.10;0.90;;;;;;;-147.86;100.00;-17609.17;105202;1268;73031;-43
2024/01/12 07:07:57;;;;;;;4.10;1.20;;;;;;;-147.86;100.00;-17609.17;105130;1263;65269;-44
2024/01/12 07:10:25;;;;;;;3.30;1.30;;;;;;;-147.86;100.00;-17609.17;105164;1266;73121;-43
2024/01/12 07:12:53;;;;;;;6.80;1.30;;;;;;;-147.86;100.00;-17609.17;105137;1268;60580;-44
2024/01/12 07:15:21;;;;;;;3.80;1.20;;;;;;;-147.86;100.00;-17609.17;105127;1268;59730;-44
2024/01/12 07:17:51;;;;;;;1.70;1.00;;;;;;;-147.86;100.00;-17609.17;105146;1263;71810;-44
2024/01/12 07:20:20;;;;;;;0.60;0.60;;;;;;;-147.86;100.00;-17609.17;105147;1263;64008;-43
2024/01/12 07:22:48;;;;;;;3.40;1.10;;;;;;;-147.86;100.00;-17609.17;105153;1268;72621;-42
2024/01/12 07:25:17;;;;;;;2.40;1.10;;;;;;;-147.86;100.00;-17609.17;105118;1268;60445;-43
2024/01/12 07:27:44;;;;;;;2.70;1.40;;;;;;;-147.86;100.00;-17609.17;105192;1268;60019;-43
2024/01/12 07:30:16;;;;;;;0.70;0.70;;;;;;;-147.86;100.00;-17609.17;105128;1263;71773;-43
2024/01/12 07:32:44;;;;;;;1.30;1.00;;;;;;;-147.86;100.00;-17609.17;105129;1268;63955;-43
2024/01/12 07:35:12;;;;;;;2.80;1.20;;;;;;;-147.86;100.00;-17609.17;105099;1263;71647;-43
2024/01/12 07:37:41;;;;;;;3.60;1.20;;;;;;;-147.86;100.00;-17609.17;105141;1266;60372;-43
2024/01/12 07:40:10;;;;;;;1.00;0.70;;;;;;;-147.86;100.00;-17609.17;105100;1263;59558;-43
2024/01/12 07:42:38;;;;;;;2.40;1.30;;;;;;;-147.86;100.00;-17609.17;105167;1263;73023;-43
2024/01/12 07:45:07;;;;;;;1.80;1.10;;;;;;;-147.86;100.00;-17609.17;105236;1263;63898;-43
2024/01/12 07:47:35;;;;;;;2.60;1.20;;;;;;;-147.86;100.00;-17609.17;105216;1263;72085;-44
2024/01/12 07:50:03;;;;;;;1.00;0.60;;;;;;;-147.86;100.00;-17609.17;105187;1265;60560;-43
2024/01/12 07:52:31;;;;;;;1.00;0.90;;;;;;;-147.86;100.00;-17609.17;105257;1263;59666;-43
2024/01/12 07:54:59;;;;;;;1.80;1.10;;;;;;;-147.86;100.00;-17609.17;105193;1260;71855;-43
2024/01/12 07:57:27;;;;;;;5.00;1.10;;;;;;;-147.86;100.00;-17609.17;105203;1264;64054;-43
2024/01/12 07:59:56;;;;;;;1.20;0.90;;;;;;;-147.86;100.00;-17609.17;105259;1260;72686;-43
2024/01/12 08:02:24;;;;;;;4.60;1.10;;;;;;;-147.86;100.00;-17609.17;105214;1263;60455;-43
2024/01/12 08:04:53;;;;;;;1.20;0.90;;;;;;;-147.86;100.00;-17609.17;105231;1260;62320;-43
2024/01/12 08:07:20;;;;;;;1.20;0.60;;;;;;;-147.86;100.00;-17609.17;105258;1264;72919;-43
2024/01/12 08:09:49;;;;;;;4.30;1.10;;;;;;;-147.86;100.00;-17609.17;105214;1264;65273;-43
2024/01/12 08:12:16;;;;;;;1.10;1.00;;;;;;;-147.86;100.00;-17609.17;105197;1265;72544;-43
2024/01/12 08:14:44;;;;;;;1.10;0.70;;;;;;;-147.86;100.00;-17609.17;105243;1263;60394;-43
2024/01/12 08:17:12;;;;;;;2.60;0.70;;;;;;;-147.86;100.00;-17609.17;105195;1266;59743;-43
2024/01/12 08:19:40;;;;;;;1.20;0.40;;;;;;;-147.86;100.00;-17609.17;105237;1260;75452;-43
2024/01/12 08:22:08;;;;;;;0.60;0.60;;;;;;;-147.86;100.00;-17609.17;105622;1260;65426;-43
2024/01/12 08:24:36;;;;;;;2.70;0.80;;;;;;;-147.86;100.00;-17609.17;105556;1260;73129;-43
2024/01/12 08:27:04;;;;;;;1.90;0.70;;;;;;;-147.86;100.00;-17609.17;105622;1257;59786;-43
2024/01/12 08:29:33;;;;;;;4.60;0.70;;;;;;;-147.86;100.00;-17609.17;105550;1257;60515;-44
2024/01/12 08:32:00;;;;;;;1.30;0.70;;;;;;;-147.86;100.00;-17609.17;105566;1260;72958;-43
2024/01/12 08:34:28;;;;;;;2.10;0.90;;;;;;;-147.86;100.00;-17609.17;105578;1257;64317;-44
2024/01/12 08:36:58;;;;;;;3.90;1.10;;;;;;;-147.86;100.00;-17609.17;105632;1257;71460;-43
2024/01/12 08:39:26;;;;;;;2.90;1.00;;;;;;;-147.86;100.00;-17609.17;105602;1255;61110;-43
2024/01/12 08:41:54;;;;;;;3.30;1.20;;;;;;;-147.86;100.00;-17609.17;105574;1257;59966;-43
2024/01/12 08:44:22;;;;;;;2.00;0.80;;;;;;;-147.86;99.47;-17609.17;105614;1256;71744;-43
2024/01/12 08:46:52;;;;;;;1.60;0.80;;;;;;;-147.86;99.03;-17609.17;105553;1260;65177;-42
2024/01/12 08:49:20;;;;;;;3.40;1.10;;;;;;;-147.86;98.44;-17609.17;105607;1257;71466;-43
2024/01/12 08:51:49;;;;;;;1.00;0.50;;;;;;;-147.86;98.04;-17609.17;105633;1257;61575;-42
2024/01/12 08:54:17;;;;;;;1.70;0.80;;;;;;;-147.86;97.40;-17609.17;105576;1260;59685;-43
2024/01/12 08:56:44;;;;;;;1.30;1.00;;;;;;;-147.86;97.09;-17609.17;105615;1260;71187;-44
2024/01/12 08:59:12;;;;;;;4.20;1.30;;;;;;;-147.86;96.95;-17609.17;105654;1262;64013;-43
2024/01/12 09:01:40;;;;;;;2.20;1.10;;;;;;;-147.86;96.63;-17609.17;105636;1257;71632;-43
2024/01/12 09:04:08;;;;;;;1.00;0.90;;;;;;;-147.86;95.83;-17609.17;105548;1262;60462;-43
2024/01/12 09:06:36;;;;;;;3.20;1.20;;;;;;;-147.86;95.80;-17609.17;105555;1256;59849;-44
2024/01/12 09:09:04;;;;;;;5.30;1.20;;;;;;;-147.86;96.02;-17609.17;105540;1257;73073;-43
2024/01/12 09:11:32;;;;;;;4.60;1.10;;;;;;;-147.86;95.89;-17609.17;105623;1260;65359;-42
2024/01/12 09:14:00;;;;;;;3.50;0.90;;;;;;;-147.86;95.26;-17609.17;105623;1260;71360;-43
2024/01/12 09:16:28;;;;;;;0.80;0.60;;;;;;;-147.86;94.48;-17609.17;105588;1260;61595;-43
2024/01/12 09:18:55;;;;;;;10.90;1.70;;;;;;;-147.86;93.23;-17609.17;105571;1257;61965;-43
2024/01/12 09:21:24;;;;;;;1.90;1.30;;;;;;;-147.86;92.94;-17609.17;105622;1258;71740;-43
2024/01/12 09:23:52;;;;;;;3.70;0.90;;;;;;;-147.86;92.93;-17609.17;105619;1260;64586;-43
2024/01/12 09:26:20;;;;;;;2.30;1.00;;;;;;;-147.86;93.18;-17609.17;105660;1262;71318;-42
2024/01/12 09:28:48;;;;;;;1.90;0.70;;;;;;;-147.86;93.03;-17609.17;105615;1262;59890;-44
2024/01/12 09:31:16;;;;;;;1.50;1.00;;;;;;;-147.86;92.65;-17609.17;105605;1256;59640;-42
2024/01/12 09:33:44;;;;;;;1.40;0.90;;;;;;;-147.86;92.15;-17609.17;105577;1257;73033;-43
2024/01/12 09:36:12;;;;;;;1.40;0.80;;;;;;;-147.86;91.44;-17609.17;105597;1262;63954;-42
2024/01/12 09:38:40;;;;;;;0.70;0.70;;;;;;;-147.86;91.27;-17609.17;105574;1260;73860;-43
2024/01/12 09:41:08;;;;;;;6.40;1.00;;;;;;;-147.86;91.00;-17609.17;105854;1259;59743;-43
2024/01/12 09:43:36;;;;;;;2.00;0.90;;;;;;;-147.86;89.92;-17609.17;105852;1257;59546;-42
2024/01/12 09:46:05;;;;;;;1.70;1.20;;;;;;;-147.86;88.29;-17608.59;105892;1254;73320;-44
2024/01/12 09:48:33;;;;;;;1.20;1.10;;;;;;;-147.86;87.92;-17212.96;105860;1259;63931;-43
2024/01/12 09:51:01;;;;;;;1.90;1.20;;;;;;;-147.86;87.75;-16719.46;105865;1254;72563;-42
2024/01/12 09:53:29;;;;;;;2.50;1.20;;;;;;;-147.86;87.78;-16423.33;105822;1253;61994;-43
2024/01/12 09:55:56;;;;;;;2.70;0.90;;;;;;;-147.86;87.97;-16620.75;105827;1253;62033;-42
2024/01/12 09:58:38;;;;;;;1.70;1.30;;;;;;;-147.86;88.37;-16818.17;105850;1257;74207;-42
2024/01/12 10:01:06;;;;;;;1.20;1.10;;;;;;;-147.86;88.19;-16966.22;105876;1255;63498;-43
2024/01/12 10:03:34;;;;;;;1.30;1.10;;;;;;;-147.86;87.10;-16522.04;105762;1259;72928;-43
2024/01/12 10:06:03;;;;;;;1.00;0.90;;;;;;;-147.86;85.09;-14399.08;105681;1256;62042;-44
2024/01/12 10:08:35;;;;;;;6.00;1.10;;;;;;;-147.86;85.01;-12571.52;105901;1256;61255;-43
2024/01/12 10:11:03;;;;;;;0.90;0.80;;;;;;;-147.86;84.80;-12225.65;105860;1253;71884;-43
2024/01/12 10:13:32;;;;;;;1.60;0.80;;;;;;;-147.86;82.45;-9210.23;105890;1257;64016;-43
2024/01/12 10:16:01;;;;;;;1.90;1.20;;;;;;;-147.86;82.84;-6934.97;105801;1252;73707;-42
2024/01/12 10:18:29;;;;;;;1.70;0.60;;;;;;;-147.86;82.81;-6093.71;105866;1253;62874;-43
2024/01/12 10:21:01;;;;;;;3.80;1.80;;;;;;;-147.86;82.21;-4262.11;105816;1257;60492;-42
2024/01/12 10:23:29;;;;;;;0.80;0.80;;;;;;;-147.86;81.74;-2132.43;105852;1253;72575;-43
2024/01/12 10:25:58;;;;;;;1.00;0.80;;;;;;;-147.86;82.10;-1934.27;105688;1260;65374;-43
2024/01/12 10:28:29;;;;;;;2.10;0.70;;;;;;;-147.86;82.37;-2231.51;105830;1256;72512;-44
2024/01/12 10:30:57;;;;;;;1.90;1.00;;;;;;;-147.86;82.75;-3667.92;105842;1259;60868;-42
2024/01/12 10:33:25;;;;;;;1.40;1.00;;;;;;;-147.86;82.75;-4460.19;105929;1253;60591;-44
2024/01/12 10:36:11;;;;;;;4.20;1.10;;;;;;;-147.86;82.14;-4064.07;105844;1257;73730;-42
2024/01/12 10:38:39;;;;;;;2.70;1.40;;;;;;;-147.86;81.35;-3073.57;105910;1252;66376;-43
2024/01/12 10:41:09;;;;;;;3.50;0.90;;;;;;;-147.86;78.26;2180.52;105676;1253;72984;-43
2024/01/12 10:43:37;;;;;;;5.10;1.30;;;;;;;-147.86;75.47;10671.31;105837;1259;61198;-43
2024/01/12 10:46:15;;;;;;;2.90;1.20;;;;;;;-147.86;74.64;18233.50;105868;1257;60569;-42
2024/01/12 10:48:53;;;;;;;2.00;0.60;;;;;;;-147.86;73.82;24783.33;105838;1258;74132;-42
2024/01/12 10:51:21;;;;;;;0.80;0.80;;;;;;;-147.86;72.53;28925.77;105897;1257;63909;-42
2024/01/12 10:54:06;;;;;;;0.60;0.60;;;;;;;-147.86;71.36;32414.74;105645;1259;74900;-43
2024/01/12 10:56:35;;;;;;;5.40;1.20;;;;;;;-147.86;70.58;34061.41;105830;1259;60826;-42
2024/01/12 10:59:04;;;;;;;2.10;1.00;;;;;;;-147.86;70.77;34743.57;105897;1254;60462;-42
2024/01/12 11:01:35;;;;;;;1.90;0.70;;;;;;;-147.86;71.25;34868.99;105878;1259;73868;-42
2024/01/12 11:04:03;;;;;;;10.70;1.20;;;;;;;-147.86;71.58;34738.49;105654;1259;65187;-43
2024/01/12 11:06:31;;;;;;;2.60;1.50;;;;;;;-147.86;71.24;34779.91;105848;1258;72594;-43
2024/01/12 11:08:59;;;;;;;2.20;1.30;;;;;;;-147.86;70.20;35031.16;105822;1257;61911;-43
2024/01/12 11:11:42;;;;;;;1.40;0.90;;;;;;;-147.86;68.74;35640.02;105660;1256;60499;-43
2024/01/12 11:14:10;;;;;;;0.60;0.60;;;;;;;-147.86;67.61;36115.68;105894;1257;72602;-43
2024/01/12 11:16:38;;;;;;;2.50;1.20;;;;;;;-147.86;66.43;36427.60;105674;1258;65133;-43
2024/01/12 11:19:12;;;;;;;1.00;0.80;;;;;;;-147.86;65.92;36684.43;105838;1255;72642;-43
2024/01/12 11:21:41;;;;;;;2.50;1.30;;;;;;;-147.86;65.09;36808.36;105872;1252;62070;-43
2024/01/12 11:24:11;;;;;;;1.80;1.30;;;;;;;-147.86;64.34;36948.71;105825;1252;60615;-42
2024/01/12 11:26:41;;;;;;;1.10;1.00;;;;;;;-147.86;64.12;37023.77;105856;1253;73437;-41
2024/01/12 11:29:19;;;;;;;2.00;1.30;;;;;;;-147.86;62.36;37141.06;105732;1259;67712;-42
2024/01/12 11:31:54;;;;;;;1.30;0.70;;;;;;;-147.86;61.87;37211.04;105857;1254;73927;-43
2024/01/12 11:34:22;;;;;;;5.20;1.40;;;;;;;-147.86;63.39;37212.22;105855;1254;62609;-43
2024/01/12 11:36:59;;;;;;;3.50;1.10;;;;;;;-147.86;65.72;37196.19;105638;1255;60453;-43
2024/01/12 11:39:33;;;;;;;3.90;1.20;;;;;;;-147.86;68.54;37128.16;105557;1257;74161;-43
2024/01/12 11:42:02;;;;;;;4.10;1.50;;;;;;;-147.86;70.97;36987.41;105671;1258;63977;-43
2024/01/12 11:44:33;;;;;;;3.80;1.60;;;;;;;-147.86;72.80;36730.17;105835;1258;71424;-46
2024/01/12 11:47:05;;;;;;;2.50;1.20;;;;;;;-147.86;74.57;36209.88;105806;1254;63866;-44
2024/01/12 11:49:33;;;;;;;2.00;1.10;;;;;;;-147.86;75.76;35353.95;105877;1257;60525;-46
2024/01/12 11:52:03;;;;;;;3.80;1.70;;;;;;;-147.86;76.80;33877.45;105845;1258;76125;-43
2024/01/12 11:54:31;;;;;;;6.80;1.70;;;;;;;-147.86;78.18;30322.73;105876;1266;65532;-44
2024/01/12 11:57:01;;;;;;;4.90;1.60;;;;;;;-147.86;79.11;24113.30;105852;1256;72601;-42
2024/01/12 11:59:30;;;;;;;2.60;1.40;;;;;;;-147.86;79.82;17984.39;105836;1259;60552;-42
2024/01/12 12:02:01;;;;;;;4.20;1.60;;;;;;;-147.86;80.18;14251.08;105864;1257;60513;-42
2024/01/12 12:04:31;;;;;;;3.70;1.70;;;;;;;-147.86;80.04;12659.28;105860;1259;73668;-42
2024/01/12 12:06:59;;;;;;;1.30;1.20;;;;;;;-147.86;80.22;11764.21;105886;1257;63952;-43
2024/01/12 12:09:28;;;;;;;1.70;1.30;;;;;;;-147.86;80.20;11018.47;105888;1256;72610;-42
2024/01/12 12:11:56;;;;;;;5.10;1.20;;;;;;;-147.86;80.23;10720.22;105831;1259;61023;-43
2024/01/12 12:14:23;;;;;;;1.40;1.30;;;;;;;-147.86;80.49;9626.86;105846;1253;60553;-43
2024/01/12 12:16:51;;;;;;;4.00;1.60;;;;;;;-147.86;81.28;6944.42;105854;1257;73809;-44
2024/01/12 12:19:19;;;;;;;3.20;1.50;;;;;;;-147.86;81.56;4660.75;105814;1257;67338;-43
2024/01/12 12:21:49;;;;;;;2.50;1.20;;;;;;;-147.86;81.42;3519.44;105824;1257;72011;-44
2024/01/12 12:24:17;;;;;;;1.30;0.90;;;;;;;-147.86;80.60;4511.89;105817;1259;63586;-44
2024/01/12 12:26:45;;;;;;;0.90;0.90;;;;;;;-147.86;80.21;6795.42;105843;1253;61045;-42
2024/01/12 12:29:13;;;;;;;1.60;0.80;;;;;;;-147.86;79.62;9577.21;105826;1257;73677;-42
2024/01/12 12:31:41;;;;;;;5.40;1.70;;;;;;;-147.86;79.45;11913.39;105885;1254;66186;-43
2024/01/12 12:34:09;;;;;;;49.50;1.50;;;;;;;-147.86;79.76;12609.53;105799;1257;74952;-42
2024/01/12 12:36:37;;;;;;;7.90;2.10;;;;;;;-147.86;79.81;12510.07;105805;1257;64362;-42
2024/01/12 12:39:05;;;;;;;5.50;1.60;;;;;;;-147.86;80.41;11267.08;105869;1257;60591;-43
2024/01/12 12:41:34;;;;;;;2.60;0.90;;;;;;;-147.86;81.12;8633.16;105864;1262;74230;-42
2024/01/12 12:44:03;;;;;;;2.70;1.70;;;;;;;-147.86;81.71;5951.36;105906;1256;65770;-42
2024/01/12 12:53:03;;;;;;;1.60;1.00;;;;;;;-147.86;82.50;5654.52;102868;1290;600792;-42
2024/01/12 12:55:31;;;;;;;1.70;1.30;;;;;;;-147.86;82.49;2676.11;105059;1266;59385;-42
2024/01/12 12:57:59;;;;;;;1.30;1.20;;;;;;;-147.86;82.79;1436.22;105050;1270;59329;-42
2024/01/12 13:00:27;;;;;;;3.50;1.90;;;;;;;-147.86;83.18;147.17;105012;1269;71702;-42
2024/01/12 13:02:56;;;;;;;1.50;1.20;;;;;;;-147.86;83.54;-1290.13;105134;1271;66048;-43
2024/01/12 13:05:24;;;;;;;3.20;1.10;;;;;;;-147.86;83.81;-2528.74;104828;1267;73029;-42
2024/01/12 13:07:51;;;;;;;7.00;1.40;;;;;;;-147.86;83.85;-3469.83;104960;1264;218062;-42
2024/01/12 13:10:19;;;;;;;1.60;1.30;;;;;;;-147.86;82.96;-2578.27;105179;1267;60259;-43
2024/01/12 13:12:47;;;;;;;2.70;1.30;;;;;;;-147.86;82.69;-1290.13;105152;1269;72292;-43
2024/01/12 13:15:15;;;;;;;3.50;1.00;;;;;;;-147.86;82.68;-398.10;105240;1267;65549;-43
2024/01/12 13:17:43;;;;;;;2.40;1.10;;;;;;;-147.86;82.65;-150.27;105194;1268;73342;-42
2024/01/12 13:20:13;;;;;;;1.80;0.70;;;;;;;-147.86;82.18;890.80;105203;1264;60395;-43
2024/01/12 13:22:40;;;;;;;1.30;1.20;;;;;;;-147.86;81.71;2229.70;105169;1264;62683;-42
2024/01/12 13:25:08;;;;;;;1.30;1.00;;;;;;;-147.86;81.25;3668.32;105132;1264;71749;-41
2024/01/12 13:27:36;;;;;;;1.30;0.80;;;;;;;-147.86;80.84;5405.26;105160;1269;66619;-45
2024/01/12 13:30:05;;;;;;;1.00;0.50;;;;;;;-147.86;80.78;6497.45;105176;1264;75101;-43
2024/01/12 13:32:34;;;;;;;4.80;1.40;;;;;;;-147.86;80.75;7291.98;105215;1264;61864;-42
2024/01/12 13:35:03;;;;;;;2.30;0.90;;;;;;;-147.86;80.96;7440.97;105165;1263;60176;-43
2024/01/12 13:37:31;;;;;;;1.90;0.90;;;;;;;-147.86;81.08;7142.98;105174;1265;72938;-42
2024/01/12 13:40:00;;;;;;;3.10;1.10;;;;;;;-147.86;81.33;6795.38;105177;1264;66258;-43
2024/01/12 13:42:27;;;;;;;3.20;1.40;;;;;;;-147.86;81.68;6050.61;105143;1264;72532;-42
2024/01/12 13:44:56;;;;;;;3.60;0.90;;;;;;;-147.86;81.96;4908.91;105149;1267;62799;-43
2024/01/12 13:47:24;;;;;;;2.40;1.50;;;;;;;-147.86;82.58;3469.85;105123;1264;60400;-43
2024/01/12 13:49:52;;;;;;;4.20;1.20;;;;;;;-147.86;83.10;1832.95;105922;1254;73093;-43
2024/01/12 13:52:21;;;;;;;5.90;1.60;;;;;;;-147.86;83.49;48.03;105902;1256;65355;-43
2024/01/12 13:54:49;;;;;;;2.20;1.30;;;;;;;-147.86;83.89;-1339.69;105823;1254;71629;-43
2024/01/12 13:57:17;;;;;;;1.30;1.10;;;;;;;-147.86;84.28;-2479.21;105848;1256;64057;-43
2024/01/12 13:59:45;;;;;;;1.90;1.20;;;;;;;-147.86;84.66;-3618.39;105810;1254;62291;-42
2024/01/12 14:02:13;;;;;;;4.20;1.50;;;;;;;-147.86;85.15;-4856.24;105961;1256;73363;-43
2024/01/12 14:04:42;;;;;;;5.30;1.50;;;;;;;-147.86;85.90;-6638.06;105814;1257;63987;-44
2024/01/12 14:07:12;;;;;;;3.00;1.60;;;;;;;-147.86;86.39;-8221.22;105913;1257;73934;-44
2024/01/12 14:09:41;;;;;;;2.80;1.50;;;;;;;-147.86;87.10;-9655.37;105775;1253;61737;-43